Time;durP1;ratioP1;P1;durP2;ratioP2;P2;SDS_P1;SDS_P2;PMS_P1;PMS_P2;Temp;Humidity;BMP_temperature;BMP_pressure;BME280_temperature;BME280_humidity;BME280_pressure;Samples;Min_cycle;Max_cycle;Signal;HPM_P1;HPM_P2
2023/04/11 00:00:14;;;;;;;394.92;284.90;;;;;;;11.58;100.00;100075.84;4979489;28;20263;-78
2023/04/11 00:02:41;;;;;;;398.25;292.80;;;;;;;11.62;100.00;100112.91;4990264;28;20247;-77
2023/04/11 00:05:09;;;;;;;393.70;296.58;;;;;;;11.60;100.00;100135.00;4972553;28;20251;-78
2023/04/11 00:07:36;;;;;;;396.50;289.77;;;;;;;11.59;100.00;100160.59;4989395;28;20575;-78
2023/04/11 00:10:06;;;;;;;392.27;280.33;;;11.30;99.90;;;11.51;100.00;100186.19;4990051;28;20371;-78
2023/04/11 00:12:33;;;;;;;397.08;291.60;;;;;;;11.58;100.00;100210.91;4987657;28;20655;-77
2023/04/11 00:15:01;;;;;;;389.95;289.10;;;;;;;11.60;100.00;100239.16;4989958;28;20662;-78
2023/04/11 00:17:30;;;;;;;395.58;284.73;;;;;;;11.69;100.00;100252.44;4981419;28;20649;-78
2023/04/11 00:20:00;;;;;;;400.33;288.38;;;11.50;99.90;;;11.68;100.00;100250.66;4989246;28;20244;-78
2023/04/11 00:22:29;;;;;;;390.83;276.23;;;;;;;11.62;100.00;100258.59;4988020;28;20224;-78
2023/04/11 00:24:56;;;;;;;386.08;277.98;;;;;;;11.54;100.00;100252.41;4990377;28;20278;-78
2023/04/11 00:27:23;;;;;;;400.10;279.67;;;11.40;99.90;;;11.59;100.00;100241.81;4981262;28;20228;-78
2023/04/11 00:29:51;;;;;;;397.95;286.58;;;;;;;11.48;100.00;100232.09;4990482;28;20323;-78
2023/04/11 00:32:20;;;;;;;385.50;286.83;;;11.30;99.90;;;11.52;100.00;100222.38;4990829;28;20303;-77
2023/04/11 00:34:47;;;;;;;388.45;278.80;;;;;;;11.59;100.00;100200.31;4956500;28;20267;-78
2023/04/11 00:37:16;;;;;;;385.85;275.20;;;;;;;11.52;100.00;100175.59;4991663;28;20267;-78
2023/04/11 00:39:44;;;;;;;386.85;274.27;;;;;;;11.62;100.00;100175.59;4989338;28;20236;-77
2023/04/11 00:42:11;;;;;;;391.23;280.80;;;;;;;11.52;100.00;100166.78;4984250;28;20224;-77
2023/04/11 00:44:39;;;;;;;395.88;286.80;;;;;;;11.45;100.00;100152.63;4989804;28;20255;-77
2023/04/11 00:47:07;;;;;;;394.80;292.70;;;11.30;99.90;;;11.45;100.00;100142.06;4990099;28;20303;-78
2023/04/11 00:49:35;;;;;;;397.30;294.30;;;11.30;99.90;;;11.48;100.00;100117.34;4985025;28;20236;-77
2023/04/11 00:52:03;;;;;;;395.45;294.38;;;11.30;99.90;;;11.40;100.00;100096.16;4998405;28;20263;-77
2023/04/11 00:54:31;;;;;;;394.02;286.42;;;;;;;11.37;100.00;100077.63;4955327;28;20287;-77
2023/04/11 00:57:03;;;;;;;397.60;293.70;;;11.20;99.90;;;11.40;100.00;100059.09;4990395;28;20244;-78
2023/04/11 00:59:31;;;;;;;393.70;275.17;;;11.20;99.90;;;11.36;100.00;100048.50;4985436;28;20232;-77
2023/04/11 01:02:00;;;;;;;384.95;278.52;;;11.10;99.90;;;11.20;100.00;100053.78;4984801;28;20240;-77
2023/04/11 01:04:31;;;;;;;397.50;275.17;;;;;;;11.12;100.00;100062.59;4986323;28;20326;-77
2023/04/11 01:07:04;;;;;;;395.50;294.27;;;11.00;99.90;;;11.16;100.00;100065.25;4986058;28;20240;-78
2023/04/11 01:09:34;;;;;;;392.25;268.13;;;10.90;99.90;;;11.04;100.00;100074.94;4983330;28;20290;-77
2023/04/11 01:12:02;;;;;;;396.48;281.27;;;10.80;99.90;;;10.89;100.00;100073.16;4971972;28;20260;-78
2023/04/11 01:14:29;;;;;;;394.40;281.13;;;10.90;99.90;;;10.99;100.00;100090.81;4988250;28;20263;-77
2023/04/11 01:17:00;;;;;;;390.33;272.08;;;10.70;99.90;;;10.89;100.00;100100.50;4969960;28;20613;-77
2023/04/11 01:19:28;;;;;;;385.25;263.25;;;;;;;10.95;100.00;100120.78;4973200;28;20327;-78
2023/04/11 01:21:57;;;;;;;394.67;263.60;;;10.70;99.90;;;10.75;100.00;100127.78;4954599;28;20241;-78
2023/04/11 01:24:24;;;;;;;386.65;273.92;;;10.60;99.90;;;10.69;100.00;100151.56;4972720;28;20233;-77
2023/04/11 01:26:52;;;;;;;387.65;269.02;;;;;;;10.69;100.00;100170.97;4993445;28;20240;-77
2023/04/11 01:29:19;;;;;;;389.08;266.33;;;10.50;99.90;;;10.65;100.00;100185.06;4987680;28;20323;-77
2023/04/11 01:31:46;;;;;;;390.63;261.20;;;;;;;10.73;100.00;100203.59;4990483;28;20243;-77
2023/04/11 01:34:15;;;;;;;387.15;265.77;;;10.40;99.90;;;10.67;100.00;100190.34;4989986;28;20271;-77
2023/04/11 01:36:43;;;;;;;386.02;253.40;;;10.50;99.90;;;10.64;100.00;100206.19;4967122;28;20241;-78
2023/04/11 01:39:11;;;;;;;395.17;271.00;;;;;;;10.70;100.00;100230.91;4975571;28;20236;-77
2023/04/11 01:41:40;;;;;;;391.65;262.15;;;10.60;99.90;;;10.77;100.00;100223.91;4991402;28;20237;-77
2023/04/11 01:44:07;;;;;;;390.88;263.95;;;10.60;99.90;;;10.74;100.00;100192.16;4991468;28;20336;-78
2023/04/11 01:46:35;;;;;;;390.05;249.95;;;;;;;10.72;100.00;100202.72;4990851;28;20256;-77
2023/04/11 01:49:02;;;;;;;388.73;256.88;;;10.50;99.90;;;10.69;100.00;100212.41;4985614;28;20768;-77
2023/04/11 01:51:29;;;;;;;383.60;243.82;;;10.50;99.90;;;10.54;100.00;100216.72;5001463;28;20232;-77
2023/04/11 01:53:57;;;;;;;385.08;258.67;;;;;;;10.53;100.00;100227.31;4977554;28;20328;-78
2023/04/11 01:56:24;;;;;;;383.27;249.82;;;10.50;99.90;;;10.66;100.00;100246.75;4970812;28;20236;-77
2023/04/11 01:58:51;;;;;;;385.67;256.17;;;10.50;99.90;;;10.69;100.00;100231.78;4988890;28;20268;-77
2023/04/11 02:01:19;;;;;;;382.92;251.73;;;10.50;99.90;;;10.77;100.00;100223.91;4992554;28;20260;-77
2023/04/11 02:03:46;;;;;;;387.85;258.75;;;;;;;10.72;100.00;100217.69;4991390;28;20244;-77
2023/04/11 02:06:15;;;;;;;387.80;244.48;;;10.50;99.90;;;10.54;100.00;100206.16;4993798;28;20723;-77
2023/04/11 02:08:43;;;;;;;404.90;257.85;;;;;;;10.57;100.00;100216.75;4988678;28;20232;-78
2023/04/11 02:11:10;;;;;;;382.77;241.20;;;;;;;10.71;100.00;100237.97;4991190;28;20240;-77
2023/04/11 02:13:38;;;;;;;386.10;255.15;;;;;;;10.72;100.00;100228.28;4991819;28;20264;-77
2023/04/11 02:16:16;;;;;;;391.92;249.90;;;10.40;99.90;;;10.45;100.00;100240.47;4990681;28;20236;-77
2023/04/11 02:18:45;;;;;;;377.08;248.63;;;10.30;99.90;;;10.49;100.00;100271.34;4988530;28;20240;-77
2023/04/11 02:21:12;;;;;;;390.38;248.57;;;10.30;99.90;;;10.35;100.00;100287.94;4991161;28;20251;-77
2023/04/11 02:23:39;;;;;;;381.98;236.98;;;10.10;99.90;;;10.31;100.00;100310.81;4989360;28;20726;-77
2023/04/11 02:26:06;;;;;;;393.30;262.55;;;;;;;10.30;100.00;100343.41;4991596;28;20268;-78
2023/04/11 02:28:35;;;;;;;397.13;256.92;;;10.20;99.90;;;10.33;100.00;100343.44;4990914;28;20251;-78
2023/04/11 02:31:02;;;;;;;383.27;246.02;;;10.20;99.90;;;10.37;100.00;100352.28;4992420;28;20255;-78
2023/04/11 02:33:30;;;;;;;394.20;255.13;;;10.20;99.90;;;10.33;100.00;100351.38;4990711;28;20236;-77
2023/04/11 02:35:57;;;;;;;380.95;245.98;;;10.20;99.90;;;10.34;100.00;100361.06;4991827;28;20705;-77
2023/04/11 02:38:24;;;;;;;389.10;248.50;;;10.20;99.90;;;10.33;100.00;100372.53;4989534;28;20232;-78
2023/04/11 02:40:51;;;;;;;389.52;255.18;;;10.10;99.90;;;10.31;100.00;100395.41;4991939;28;20237;-77
2023/04/11 02:43:18;;;;;;;390.80;244.57;;;;;;;10.29;100.00;100399.78;4991658;28;20263;-78
2023/04/11 02:45:46;;;;;;;382.35;239.52;;;10.10;99.90;;;10.23;100.00;100413.84;4973724;28;20302;-78
2023/04/11 02:48:13;;;;;;;397.83;248.73;;;10.10;99.90;;;10.24;100.00;100426.19;4972969;28;20278;-77
2023/04/11 02:50:40;;;;;;;386.95;248.60;;;;;;;10.17;100.00;100436.63;4973180;28;20260;-77
2023/04/11 02:53:07;;;;;;;388.48;247.35;;;10.00;99.90;;;10.18;100.00;100441.94;4990897;28;20232;-77
2023/04/11 02:55:35;;;;;;;381.83;230.87;;;10.00;99.90;;;10.11;100.00;100450.66;4990355;28;20240;-77
2023/04/11 02:58:02;;;;;;;397.23;250.03;;;9.80;99.90;;;9.99;100.00;100455.81;4985156;28;20761;-77
2023/04/11 03:00:29;;;;;;;377.17;234.13;;;9.90;99.90;;;9.99;100.00;100473.44;4989082;28;20259;-76
2023/04/11 03:02:57;;;;;;;384.77;219.07;;;;;;;9.99;100.00;100490.16;4989704;28;20232;-77
2023/04/11 03:05:25;;;;;;;371.10;222.60;;;9.80;99.90;;;9.99;100.00;100499.84;4990911;28;20236;-77
2023/04/11 03:07:52;;;;;;;384.75;239.30;;;9.80;99.90;;;9.94;100.00;100507.72;4990620;28;20248;-77
2023/04/11 03:10:20;;;;;;;386.60;236.57;;;;;;;9.93;100.00;100530.59;4990251;28;20247;-78
2023/04/11 03:12:48;;;;;;;384.65;227.32;;;;;;;9.89;100.00;100535.81;4984490;28;20239;-78
2023/04/11 03:15:16;;;;;;;380.40;222.63;;;;;;;9.91;100.00;100553.47;4989647;28;20288;-77
2023/04/11 03:17:44;;;;;;;378.33;218.40;;;;;;;9.93;100.00;100551.72;4973643;28;20629;-78
2023/04/11 03:20:12;;;;;;;388.07;238.17;;;;;;;9.90;100.00;100559.63;4986632;28;20287;-78
2023/04/11 03:22:40;;;;;;;377.37;216.90;;;;;;;9.85;100.00;100569.22;4991206;28;20310;-79
2023/04/11 03:25:08;;;;;;;379.97;228.00;;;;;;;9.83;100.00;100581.53;4993893;28;20681;-79
2023/04/11 03:27:35;;;;;;;378.52;210.45;;;;;;;9.83;100.00;100597.38;4989244;28;20235;-79
2023/04/11 03:30:03;;;;;;;376.50;220.50;;;9.70;99.90;;;9.81;100.00;100590.28;4991452;28;20252;-78
2023/04/11 03:32:31;;;;;;;372.87;218.30;;;9.60;99.90;;;9.72;100.00;100587.53;4989523;28;20232;-78
2023/04/11 03:35:00;;;;;;;373.17;215.17;;;9.50;99.90;;;9.66;100.00;100603.28;4981518;28;20247;-78
2023/04/11 03:37:27;;;;;;;378.93;221.50;;;9.50;99.90;;;9.64;100.00;100611.16;4981865;28;20645;-78
2023/04/11 03:39:54;;;;;;;383.73;222.25;;;9.50;99.90;;;9.67;100.00;100605.06;4987734;28;20319;-78
2023/04/11 03:42:22;;;;;;;373.73;213.73;;;;;;;9.60;100.00;100591.75;4996934;28;20252;-78
2023/04/11 03:44:49;;;;;;;373.23;212.80;;;;;;;9.62;100.00;100600.59;4973363;28;20268;-78
2023/04/11 03:47:17;;;;;;;384.63;242.83;;;;;;;9.55;100.00;100606.63;4989924;28;20228;-78
2023/04/11 03:49:44;;;;;;;377.35;207.95;;;;;;;9.54;100.00;100599.59;4988902;28;20252;-79
2023/04/11 03:52:13;;;;;;;377.30;203.47;;;;;;;9.54;100.00;100603.97;4994543;28;20263;-79
2023/04/11 03:54:41;;;;;;;378.30;199.70;;;9.40;99.90;;;9.56;100.00;100600.50;4997382;28;20236;-79
2023/04/11 03:57:09;;;;;;;380.98;211.55;;;;;;;9.58;100.00;100588.19;4988587;28;20236;-79
2023/04/11 03:59:36;;;;;;;380.97;206.57;;;9.40;99.90;;;9.62;100.00;100568.91;4988371;28;20240;-79
2023/04/11 04:02:04;;;;;;;376.67;214.57;;;;;;;9.57;100.00;100545.94;4990425;28;20262;-78
2023/04/11 04:04:32;;;;;;;380.77;228.33;;;9.50;99.90;;;9.63;100.00;100498.50;4977999;28;20266;-78
2023/04/11 04:07:00;;;;;;;383.67;219.10;;;9.50;99.90;;;9.66;100.00;100474.78;4976755;28;20268;-79
2023/04/11 04:09:27;;;;;;;382.10;220.77;;;9.50;99.90;;;9.50;100.00;100463.13;4998900;28;20752;-79
2023/04/11 04:11:56;;;;;;;377.73;209.33;;;9.40;99.90;;;9.46;100.00;100429.63;4967663;28;20231;-79
2023/04/11 04:14:23;;;;;;;376.47;213.90;;;9.30;99.90;;;9.47;100.00;100420.84;4978979;28;20232;-79
2023/04/11 04:16:50;;;;;;;376.80;220.90;;;9.30;99.90;;;9.58;100.00;100426.25;4969117;28;20362;-80
2023/04/11 04:19:17;;;;;;;371.95;206.18;;;9.40;99.90;;;9.63;100.00;100437.78;4992404;28;20268;-78
2023/04/11 04:21:45;;;;;;;378.40;214.43;;;9.40;99.90;;;9.59;100.00;100433.31;4989663;28;20275;-78
2023/04/11 04:24:12;;;;;;;371.97;203.37;;;9.40;99.90;;;9.56;100.00;100439.44;4989712;28;20240;-78
2023/04/11 04:26:40;;;;;;;373.63;210.67;;;9.20;99.90;;;9.29;100.00;100457.53;4990400;28;20355;-79
2023/04/11 04:29:08;;;;;;;375.87;208.70;;;9.10;99.90;;;9.24;100.00;100465.38;4971859;28;20236;-79
2023/04/11 04:31:37;;;;;;;381.10;206.10;;;9.10;99.90;;;9.19;100.00;100485.53;4991082;28;20272;-79
2023/04/11 04:34:09;;;;;;;377.70;213.07;;;9.00;99.90;;;9.19;100.00;100497.84;4994579;28;20649;-80
2023/04/11 04:36:48;;;;;;;369.13;202.57;;;9.10;99.90;;;9.22;100.00;100511.97;4991069;28;20759;-80
2023/04/11 04:39:19;;;;;;;372.25;204.65;;;9.10;99.90;;;9.28;100.00;100519.09;4994446;28;20239;-79
2023/04/11 04:41:47;;;;;;;375.00;200.97;;;9.20;99.90;;;9.37;100.00;100531.56;4975232;28;20235;-79
2023/04/11 04:44:15;;;;;;;378.53;214.60;;;9.20;99.90;;;9.32;100.00;100543.78;4991579;28;20228;-80
2023/04/11 04:46:43;;;;;;;371.27;201.70;;;9.10;99.90;;;9.22;100.00;100571.78;4990542;28;20232;-80
2023/04/11 04:49:10;;;;;;;376.63;213.30;;;9.00;99.90;;;9.12;100.00;100570.75;4992614;28;20294;-79
2023/04/11 04:51:39;;;;;;;380.20;212.03;;;;;;;9.35;100.00;100575.50;4991484;28;20669;-80
2023/04/11 04:54:06;;;;;;;372.93;208.93;;;9.20;99.90;;;9.47;100.00;100559.88;4992168;28;20283;-79
2023/04/11 04:56:33;;;;;;;383.00;205.17;;;9.30;99.90;;;9.41;100.00;100554.50;4991202;28;20247;-79
2023/04/11 04:59:00;;;;;;;370.13;197.67;;;9.20;99.90;;;9.38;100.00;100555.31;4993830;28;20260;-79
2023/04/11 05:01:27;;;;;;;371.33;198.60;;;9.20;99.90;;;9.38;100.00;100544.78;4996204;28;20244;-79
2023/04/11 05:03:58;;;;;;;375.17;207.80;;;9.30;99.90;;;9.46;100.00;100540.50;4995447;28;20247;-79
2023/04/11 05:06:30;;;;;;;377.38;204.40;;;9.20;99.90;;;9.43;100.00;100519.34;4995003;28;20685;-79
2023/04/11 05:09:00;;;;;;;370.92;194.18;;;9.30;99.90;;;9.47;100.00;100521.16;4995351;28;20234;-85
2023/04/11 05:11:28;;;;;;;382.47;204.53;;;9.30;99.90;;;9.42;100.00;100514.91;5000867;22;20231;-79
2023/04/11 05:16:41;;;;;;;399.57;203.13;;;9.20;99.90;;;9.37;100.00;100511.31;5015181;23;20308;-77
2023/04/11 05:19:08;;;;;;;387.00;201.70;;;;;;;9.34;100.00;100498.09;4943814;28;20781;-77
2023/04/11 05:21:37;;;;;;;384.70;207.37;;;9.20;99.90;;;9.35;100.00;100484.03;4948043;28;20284;-76
2023/04/11 05:24:04;;;;;;;378.27;196.03;;;9.20;99.90;;;9.28;100.00;100472.50;4950688;28;20325;-74
2023/04/11 05:26:31;;;;;;;378.40;201.67;;;9.10;99.90;;;9.20;100.00;100470.59;4945855;28;20305;-76
2023/04/11 05:29:00;;;;;;;384.37;196.47;;;9.20;99.90;;;9.35;100.00;100475.22;4951591;28;20241;-77
2023/04/11 05:31:30;;;;;;;372.23;205.37;;;9.20;99.90;;;9.32;100.00;100454.06;4952425;28;20233;-77
2023/04/11 05:33:57;;;;;;;381.10;202.27;;;9.10;99.90;;;9.28;100.00;100451.38;4946204;28;20242;-77
2023/04/11 05:36:25;;;;;;;388.37;202.87;;;9.10;99.90;;;9.27;100.00;100438.16;4944701;28;20402;-76
2023/04/11 05:38:52;;;;;;;379.27;203.13;;;9.10;99.90;;;9.28;100.00;100438.19;4950552;28;20257;-76
2023/04/11 05:41:19;;;;;;;374.38;181.45;;;9.10;99.90;;;9.36;100.00;100425.09;4953387;28;20313;-76
2023/04/11 05:43:46;;;;;;;389.53;200.50;;;9.20;99.90;;;9.33;100.00;100426.81;4948773;28;20257;-76
2023/04/11 05:46:13;;;;;;;409.73;211.77;;;9.20;99.90;;;9.22;100.00;100416.97;4950651;28;20296;-76
2023/04/11 05:48:40;;;;;;;393.43;217.90;;;9.10;99.90;;;9.24;100.00;100422.28;4945693;28;20241;-77
2023/04/11 05:51:07;;;;;;;386.33;199.23;;;9.00;99.90;;;9.22;100.00;100427.53;4947934;28;20238;-77
2023/04/11 05:53:35;;;;;;;373.85;184.15;;;9.00;99.90;;;9.22;100.00;100448.66;4947384;28;20234;-78
2023/04/11 05:56:03;;;;;;;369.98;179.02;;;;;;;9.21;100.00;100453.91;4949661;28;20241;-78
2023/04/11 05:58:30;;;;;;;380.90;190.73;;;9.00;99.90;;;9.22;100.00;100448.66;4951320;28;20225;-78
2023/04/11 06:00:58;;;;;;;381.43;194.23;;;9.00;99.90;;;9.14;100.00;100450.28;4928525;29;20241;-76
2023/04/11 06:03:26;;;;;;;375.17;183.33;;;9.00;99.90;;;9.17;100.00;100452.97;4954551;28;20236;-77
2023/04/11 06:05:53;;;;;;;399.77;294.07;;;9.00;99.90;;;9.14;100.00;100445.00;4949100;28;20257;-76
2023/04/11 06:08:21;;;;;;;366.95;188.25;;;9.00;99.90;;;9.11;100.00;100444.97;4943168;28;20292;-76
2023/04/11 06:10:48;;;;;;;396.23;236.63;;;9.00;99.90;;;9.16;100.00;100448.56;4935091;28;20234;-77
2023/04/11 06:13:15;;;;;;;417.67;208.68;;;9.00;99.90;;;9.16;100.00;100453.84;4947591;28;20661;-77
2023/04/11 06:15:42;;;;;;;382.60;191.68;;;9.00;99.90;;;9.17;100.00;100452.09;4926980;29;20273;-77
2023/04/11 06:18:11;;;;;;;379.23;176.47;;;9.00;99.90;;;9.21;100.00;100446.00;4947802;28;20698;-77
2023/04/11 06:20:38;;;;;;;380.50;194.10;;;9.00;99.90;;;9.19;100.00;100429.25;4950326;28;20253;-77
2023/04/11 06:23:05;;;;;;;387.67;196.27;;;9.10;99.90;;;9.20;100.00;100428.38;4927550;29;20254;-78
2023/04/11 06:25:32;;;;;;;389.00;182.80;;;9.10;99.90;;;9.25;100.00;100427.59;4945136;28;20264;-79
2023/04/11 06:27:59;;;;;;;383.58;188.50;;;9.10;99.90;;;9.23;100.00;100426.66;4947038;28;20273;-77
2023/04/11 06:30:26;;;;;;;377.92;196.25;;;9.10;99.90;;;9.26;100.00;100453.09;4915491;28;20245;-79
2023/04/11 06:32:55;;;;;;;370.15;180.18;;;9.10;99.90;;;9.30;100.00;100468.13;4946711;28;20971;-78
2023/04/11 06:35:26;;;;;;;370.35;180.57;;;9.10;99.90;;;9.28;100.00;100454.00;4945071;28;20245;-79
2023/04/11 06:37:53;;;;;;;382.23;186.67;;;9.20;99.90;;;9.33;100.00;100440.00;4953747;28;20253;-79
2023/04/11 06:40:20;;;;;;;368.20;176.83;;;9.20;99.90;;;9.34;100.00;100425.94;4954006;28;20265;-78
2023/04/11 06:42:47;;;;;;;387.60;197.07;;;9.20;99.90;;;9.39;100.00;100406.66;4952533;28;20273;-78
2023/04/11 06:45:14;;;;;;;369.58;190.35;;;9.20;99.90;;;9.43;100.00;100403.19;4943547;28;20257;-78
2023/04/11 06:47:41;;;;;;;380.73;185.73;;;9.30;99.90;;;9.52;100.00;100398.03;4952677;28;20230;-78
2023/04/11 06:50:09;;;;;;;369.33;188.70;;;9.30;99.90;;;9.55;100.00;100370.78;4952984;28;20242;-78
2023/04/11 06:52:36;;;;;;;373.33;189.57;;;9.30;99.90;;;9.52;100.00;100366.34;4952910;28;20241;-79
2023/04/11 06:55:06;;;;;;;367.13;183.18;;;9.30;99.90;;;9.46;100.00;100355.72;4953810;28;20312;-79
2023/04/11 06:57:33;;;;;;;373.85;194.35;;;9.30;99.90;;;9.43;100.00;100358.31;4953055;28;20243;-78
2023/04/11 07:00:00;;;;;;;377.80;186.93;;;;;;;9.48;100.00;100355.75;4949159;28;20293;-78
2023/04/11 07:02:28;;;;;;;374.10;195.37;;;;;;;9.49;100.00;100350.47;4951412;28;20230;-78
2023/04/11 07:04:55;;;;;;;373.65;201.38;;;9.40;99.90;;;9.55;100.00;100347.03;4937151;23;20235;-76
2023/04/11 07:07:22;;;;;;;382.17;195.40;;;9.40;99.90;;;9.55;100.00;100337.34;4950317;28;20233;-75
2023/04/11 07:09:49;;;;;;;364.17;195.40;;;9.40;99.90;;;9.54;100.00;100335.56;4951803;28;20241;-77
2023/04/11 07:12:17;;;;;;;369.00;205.00;;;9.40;99.90;;;9.53;100.00;100317.09;4952233;28;20237;-77
2023/04/11 07:14:44;;;;;;;366.30;193.47;;;;;;;9.62;100.00;100294.31;4953010;28;20230;-78
2023/04/11 07:17:11;;;;;;;373.77;201.80;;;9.40;99.90;;;9.67;100.00;100281.16;4951107;28;20298;-77
2023/04/11 07:19:38;;;;;;;367.80;204.20;;;9.50;99.90;;;9.67;100.00;100270.59;4952776;28;20276;-75
2023/04/11 07:22:05;;;;;;;366.07;209.37;;;9.50;99.90;;;9.71;100.00;100266.22;4950937;28;20252;-76
2023/04/11 07:24:32;;;;;;;373.33;194.93;;;9.50;99.90;;;9.71;100.00;100253.03;4949060;28;20246;-76
2023/04/11 07:27:00;;;;;;;371.60;200.48;;;9.50;99.90;;;9.79;100.00;100224.94;4953121;28;20288;-76
2023/04/11 07:29:28;;;;;;;362.10;190.82;;;9.70;99.90;;;9.78;100.00;100200.28;4953911;28;20237;-78
2023/04/11 07:31:54;;;;;;;365.08;198.10;;;9.60;99.90;;;9.77;100.00;100176.50;4944755;29;20237;-77
2023/04/11 07:34:22;;;;;;;374.47;192.40;;;9.60;99.90;;;9.85;100.00;100158.94;4950995;28;20308;-76
2023/04/11 07:36:49;;;;;;;391.93;218.17;;;5.50;99.90;;;9.87;100.00;100158.09;4935380;28;20230;-77
2023/04/11 07:39:16;;;;;;;365.15;191.25;;;9.70;99.90;;;9.82;100.00;100151.00;4935219;29;20321;-77
2023/04/11 07:41:43;;;;;;;380.15;205.80;;;9.60;99.90;;;9.87;100.00;100136.06;4945157;28;20250;-76
2023/04/11 07:44:10;;;;;;;384.00;252.77;;;9.70;99.90;;;9.90;100.00;100125.53;4952909;28;20732;-77
2023/04/11 07:46:38;;;;;;;365.97;206.50;;;9.70;99.90;;;9.91;100.00;100111.47;4957871;28;20650;-76
2023/04/11 07:49:06;;;;;;;366.70;200.37;;;9.70;99.90;;;9.87;100.00;100107.91;4952177;28;20332;-76
2023/04/11 07:51:34;;;;;;;365.37;210.67;;;9.80;99.90;;;9.98;100.00;100094.78;4946080;28;20233;-76
2023/04/11 07:54:01;;;;;;;388.57;214.37;;;10.00;99.90;;;10.35;100.00;100076.50;4949144;28;20237;-76
2023/04/11 07:56:28;;;;;;;373.30;204.10;;;10.00;99.90;;;10.37;100.00;100019.22;4949276;28;20312;-76
2023/04/11 07:58:57;;;;;;;369.02;213.35;;;10.20;99.90;;;10.34;100.00;100014.81;4945234;29;20233;-76
2023/04/11 08:01:25;;;;;;;373.63;217.27;;;10.40;99.90;;;10.66;100.00;100006.13;4956988;28;20241;-76
2023/04/11 08:03:54;;;;;;;385.17;236.20;;;10.30;99.90;;;10.55;100.00;99975.25;4949620;29;20325;-76
2023/04/11 08:06:22;;;;;;;372.08;226.32;;;10.40;99.90;;;11.06;100.00;100007.91;4951336;29;20280;-76
2023/04/11 08:08:50;;;;;;;375.52;227.00;;;10.60;99.90;;;10.79;100.00;99949.72;4950272;28;20721;-75
2023/04/11 08:11:17;;;;;;;370.33;210.43;;;10.70;99.90;;;11.10;100.00;99943.53;4936150;29;20229;-78
2023/04/11 08:13:44;;;;;;;374.75;229.23;;;10.90;99.90;;;11.10;100.00;99909.13;4953226;28;20245;-77
2023/04/11 08:16:13;;;;;;;375.98;228.15;;;10.90;99.90;;;11.32;100.00;99891.44;4950978;29;20288;-77
2023/04/11 08:18:41;;;;;;;385.83;240.30;;;11.00;99.90;;;11.15;100.00;99890.59;4948250;28;20296;-78
2023/04/11 08:21:11;;;;;;;371.80;240.93;;;11.00;99.90;;;10.83;100.00;99864.19;4944955;28;20284;-78
2023/04/11 08:23:40;;;;;;;383.73;243.57;;;10.80;99.90;;;10.83;100.00;99875.66;4951659;28;20229;-77
2023/04/11 08:26:08;;;;;;;377.30;244.05;;;10.70;99.90;;;11.16;100.00;99895.88;4950625;28;20238;-77
2023/04/11 08:28:35;;;;;;;383.77;240.85;;;10.80;99.90;;;11.23;100.00;99863.22;4951825;28;20234;-78
2023/04/11 08:31:04;;;;;;;374.25;233.57;;;11.90;99.90;;;11.21;100.00;99840.28;4952811;28;20724;-78
2023/04/11 08:33:32;;;;;;;378.55;237.70;;;11.00;99.90;;;11.17;100.00;99804.13;4952893;28;20237;-77
2023/04/11 08:35:59;;;;;;;380.67;256.83;;;11.00;99.90;;;11.19;100.00;99819.13;4951762;28;20293;-77
2023/04/11 08:38:26;;;;;;;381.77;253.88;;;10.90;99.90;;;11.16;100.00;99786.50;4952823;28;20233;-77
2023/04/11 08:40:54;;;;;;;378.60;258.95;;;11.00;99.90;;;11.21;100.00;99763.53;4935637;28;20251;-77
2023/04/11 08:43:21;;;;;;;386.50;266.10;;;11.00;99.90;;;11.27;100.00;99739.69;4952648;29;20238;-77
2023/04/11 08:45:48;;;;;;;383.85;266.15;;;11.10;99.90;;;11.31;100.00;99752.03;4932455;28;20238;-77
2023/04/11 08:48:15;;;;;;;383.52;266.90;;;11.10;99.90;;;11.38;100.00;99710.53;4952440;28;20241;-77
2023/04/11 08:50:43;;;;;;;389.55;268.05;;;11.40;99.90;;;11.53;100.00;99718.38;4951730;29;20226;-77
2023/04/11 08:53:11;;;;;;;382.10;260.60;;;11.40;99.90;;;11.85;100.00;99728.81;4953296;28;20265;-78
2023/04/11 08:55:47;;;;;;;393.63;281.50;;;11.50;99.90;;;11.79;100.00;99711.19;4930256;29;20245;-76
2023/04/11 08:58:15;;;;;;;385.85;266.02;;;11.60;99.90;;;11.95;100.00;99722.53;4952439;28;20264;-78
2023/04/11 09:00:42;;;;;;;393.50;291.42;;;11.90;99.90;;;12.39;100.00;99735.41;4951367;28;20245;-75
2023/04/11 09:03:13;;;;;;;394.10;304.52;;;12.00;99.90;;;12.04;100.00;99658.88;4951310;29;20241;-76
2023/04/11 09:05:45;;;;;;;392.70;306.17;;;11.70;99.90;;;11.92;100.00;99680.19;4950606;29;20243;-77
2023/04/11 09:08:15;;;;;;;388.38;286.10;;;11.70;99.90;;;11.62;100.00;99685.66;4934765;29;20257;-77
2023/04/11 09:10:44;;;;;;;387.67;277.52;;;11.40;99.90;;;11.46;100.00;99698.13;4934639;29;20284;-77
2023/04/11 09:13:24;;;;;;;391.15;287.17;;;11.40;99.90;;;11.37;100.00;99664.63;4952267;29;20237;-77
2023/04/11 09:16:06;;;;;;;396.85;284.48;;;11.10;99.90;;;11.34;100.00;99630.25;4950135;28;20226;-77
2023/04/11 09:18:36;;;;;;;395.20;288.13;;;11.20;99.90;;;12.11;100.00;99708.28;4951211;28;20304;-79
2023/04/11 09:21:07;;;;;;;387.25;281.35;;;11.60;99.90;;;12.18;100.00;99664.91;4951046;28;20234;-77
2023/04/11 09:23:35;;;;;;;380.52;282.65;;;12.10;99.90;;;12.55;100.00;99651.28;4934560;29;20237;-76
2023/04/11 09:26:05;;;;;;;387.85;295.50;;;12.30;99.90;;;12.77;100.00;99612.09;4950244;29;20733;-77
2023/04/11 09:28:49;;;;;;;380.80;283.20;;;12.40;99.90;;;12.87;100.00;99604.88;4944557;29;20234;-77
2023/04/11 09:31:16;;;;;;;390.25;309.92;;;12.90;99.90;;;13.31;100.00;99650.34;4917945;29;20230;-78
2023/04/11 09:33:55;;;;;;;403.45;326.70;;;12.90;99.90;;;13.19;100.00;99604.50;4949869;28;20236;-76
2023/04/11 09:36:26;;;;;;;406.13;331.60;;;12.90;99.90;;;13.02;100.00;99575.50;4950133;29;20249;-77
2023/04/11 09:38:53;;;;;;;396.42;319.67;;;12.80;99.90;;;12.52;100.00;99533.75;4943681;29;20239;-77
2023/04/11 09:41:32;;;;;;;397.17;328.33;;;12.40;99.90;;;12.77;100.00;99569.66;4950702;29;20241;-76
2023/04/11 09:44:00;;;;;;;397.00;308.50;;;12.50;99.90;;;13.01;100.00;99621.53;4949085;28;20261;-76
2023/04/11 09:46:28;;;;;;;402.52;343.25;;;12.70;99.90;;;13.06;100.00;99601.13;4951835;29;20241;-77
2023/04/11 09:48:55;;;;;;;404.05;338.95;;;12.80;99.90;;;13.26;100.00;99630.94;4952921;28;20714;-77
2023/04/11 09:51:23;;;;;;;409.70;354.80;;;12.90;99.90;;;13.15;100.00;99593.03;4953345;28;20240;-77
2023/04/11 09:53:54;;;;;;;405.38;352.30;;;12.90;99.90;;;13.50;100.00;99627.03;4952458;28;20636;-77
2023/04/11 09:56:25;;;;;;;408.38;359.17;;;13.10;99.90;;;13.32;100.00;99542.34;4955960;28;20225;-77
2023/04/11 09:58:55;;;;;;;404.85;351.75;;;13.20;99.90;;;13.53;100.00;99510.09;4940076;28;20264;-77
2023/04/11 10:01:24;;;;;;;403.30;342.63;;;13.20;99.90;;;13.40;100.00;99445.72;4937435;29;20268;-77
2023/04/11 10:03:52;;;;;;;444.55;397.98;;;13.40;99.90;;;13.94;100.00;99527.06;4948315;28;20682;-77
2023/04/11 10:06:40;;;;;;;444.67;398.42;;;13.50;99.90;;;13.99;100.00;99494.19;4930937;29;20324;-77